sensor_id;sensor_type;location;lat;lon;timestamp;P1;durP1;ratioP1;P2;durP2;ratioP2
14740;SDS011;7462;53.530;9.414;2023-04-16T00:01:15;26.33;;;20.20;;
14740;SDS011;7462;53.530;9.414;2023-04-16T00:03:43;25.07;;;20.00;;
14740;SDS011;7462;53.530;9.414;2023-04-16T00:06:12;20.60;;;18.47;;
14740;SDS011;7462;53.530;9.414;2023-04-16T00:08:40;20.33;;;17.77;;
14740;SDS011;7462;53.530;9.414;2023-04-16T00:11:09;24.10;;;20.17;;
14740;SDS011;7462;53.530;9.414;2023-04-16T00:13:37;21.63;;;18.60;;
14740;SDS011;7462;53.530;9.414;2023-04-16T00:16:06;25.43;;;20.23;;
14740;SDS011;7462;53.530;9.414;2023-04-16T00:18:35;24.93;;;20.53;;
14740;SDS011;7462;53.530;9.414;2023-04-16T00:21:05;26.37;;;19.17;;
14740;SDS011;7462;53.530;9.414;2023-04-16T00:23:33;25.03;;;20.73;;
14740;SDS011;7462;53.530;9.414;2023-04-16T00:26:01;27.30;;;20.87;;
14740;SDS011;7462;53.530;9.414;2023-04-16T00:28:29;23.17;;;20.70;;
14740;SDS011;7462;53.530;9.414;2023-04-16T00:30:57;26.00;;;21.10;;
14740;SDS011;7462;53.530;9.414;2023-04-16T00:33:27;25.63;;;20.87;;
14740;SDS011;7462;53.530;9.414;2023-04-16T00:35:57;25.67;;;21.23;;
14740;SDS011;7462;53.530;9.414;2023-04-16T00:38:25;29.07;;;21.17;;
14740;SDS011;7462;53.530;9.414;2023-04-16T00:40:55;25.60;;;22.07;;
14740;SDS011;7462;53.530;9.414;2023-04-16T00:43:24;24.13;;;21.40;;
14740;SDS011;7462;53.530;9.414;2023-04-16T00:45:53;28.57;;;21.67;;
14740;SDS011;7462;53.530;9.414;2023-04-16T00:48:23;24.73;;;21.03;;
14740;SDS011;7462;53.530;9.414;2023-04-16T00:50:53;24.57;;;21.40;;
14740;SDS011;7462;53.530;9.414;2023-04-16T00:53:23;25.90;;;21.33;;
14740;SDS011;7462;53.530;9.414;2023-04-16T00:55:51;25.83;;;21.40;;
14740;SDS011;7462;53.530;9.414;2023-04-16T00:58:21;26.50;;;21.63;;
14740;SDS011;7462;53.530;9.414;2023-04-16T01:00:49;24.77;;;20.33;;
14740;SDS011;7462;53.530;9.414;2023-04-16T01:03:18;24.10;;;21.50;;
14740;SDS011;7462;53.530;9.414;2023-04-16T01:05:46;25.63;;;20.80;;
14740;SDS011;7462;53.530;9.414;2023-04-16T01:08:16;27.07;;;21.53;;
14740;SDS011;7462;53.530;9.414;2023-04-16T01:10:46;23.63;;;20.00;;
14740;SDS011;7462;53.530;9.414;2023-04-16T01:13:14;25.53;;;20.70;;
14740;SDS011;7462;53.530;9.414;2023-04-16T01:15:42;23.70;;;19.10;;
14740;SDS011;7462;53.530;9.414;2023-04-16T01:18:14;24.87;;;20.53;;
14740;SDS011;7462;53.530;9.414;2023-04-16T01:20:43;23.90;;;20.33;;
14740;SDS011;7462;53.530;9.414;2023-04-16T01:23:12;26.37;;;20.13;;
14740;SDS011;7462;53.530;9.414;2023-04-16T01:25:40;23.97;;;19.77;;
14740;SDS011;7462;53.530;9.414;2023-04-16T01:28:08;23.27;;;18.93;;
14740;SDS011;7462;53.530;9.414;2023-04-16T01:30:37;20.97;;;18.67;;
14740;SDS011;7462;53.530;9.414;2023-04-16T01:33:17;24.70;;;20.13;;
14740;SDS011;7462;53.530;9.414;2023-04-16T01:35:49;25.37;;;19.40;;
14740;SDS011;7462;53.530;9.414;2023-04-16T01:38:17;26.73;;;20.20;;
14740;SDS011;7462;53.530;9.414;2023-04-16T01:40:45;24.87;;;20.03;;
14740;SDS011;7462;53.530;9.414;2023-04-16T01:43:13;22.57;;;18.67;;
14740;SDS011;7462;53.530;9.414;2023-04-16T01:45:41;23.77;;;19.63;;
14740;SDS011;7462;53.530;9.414;2023-04-16T01:48:10;24.03;;;19.20;;
14740;SDS011;7462;53.530;9.414;2023-04-16T01:50:38;22.87;;;19.07;;
14740;SDS011;7462;53.530;9.414;2023-04-16T01:53:08;23.27;;;19.03;;
14740;SDS011;7462;53.530;9.414;2023-04-16T01:55:36;21.07;;;18.87;;
14740;SDS011;7462;53.530;9.414;2023-04-16T01:58:04;24.97;;;21.03;;
14740;SDS011;7462;53.530;9.414;2023-04-16T02:00:36;22.93;;;20.40;;
14740;SDS011;7462;53.530;9.414;2023-04-16T02:03:05;25.00;;;20.60;;
14740;SDS011;7462;53.530;9.414;2023-04-16T02:05:33;25.20;;;21.53;;
14740;SDS011;7462;53.530;9.414;2023-04-16T02:08:01;23.30;;;19.20;;
14740;SDS011;7462;53.530;9.414;2023-04-16T02:10:30;26.03;;;21.13;;
14740;SDS011;7462;53.530;9.414;2023-04-16T02:12:58;24.70;;;19.53;;
14740;SDS011;7462;53.530;9.414;2023-04-16T02:15:27;24.67;;;20.13;;
14740;SDS011;7462;53.530;9.414;2023-04-16T02:17:55;25.30;;;20.20;;
14740;SDS011;7462;53.530;9.414;2023-04-16T02:20:24;24.53;;;20.17;;
14740;SDS011;7462;53.530;9.414;2023-04-16T02:22:57;27.70;;;21.20;;
14740;SDS011;7462;53.530;9.414;2023-04-16T02:25:25;26.50;;;21.30;;
14740;SDS011;7462;53.530;9.414;2023-04-16T02:27:57;26.83;;;21.43;;
14740;SDS011;7462;53.530;9.414;2023-04-16T02:30:33;25.17;;;20.33;;
14740;SDS011;7462;53.530;9.414;2023-04-16T02:33:03;26.97;;;20.33;;
14740;SDS011;7462;53.530;9.414;2023-04-16T02:35:33;25.07;;;20.23;;
14740;SDS011;7462;53.530;9.414;2023-04-16T02:38:01;23.33;;;20.27;;
14740;SDS011;7462;53.530;9.414;2023-04-16T02:40:30;25.57;;;22.17;;
14740;SDS011;7462;53.530;9.414;2023-04-16T02:43:00;27.50;;;21.30;;
14740;SDS011;7462;53.530;9.414;2023-04-16T02:45:28;25.40;;;21.20;;
14740;SDS011;7462;53.530;9.414;2023-04-16T02:47:57;25.17;;;19.40;;
14740;SDS011;7462;53.530;9.414;2023-04-16T02:50:26;24.50;;;20.80;;
14740;SDS011;7462;53.530;9.414;2023-04-16T02:52:54;26.33;;;20.37;;
14740;SDS011;7462;53.530;9.414;2023-04-16T02:55:22;25.13;;;20.40;;
14740;SDS011;7462;53.530;9.414;2023-04-16T02:57:50;26.40;;;21.67;;
14740;SDS011;7462;53.530;9.414;2023-04-16T03:00:19;25.27;;;19.43;;
14740;SDS011;7462;53.530;9.414;2023-04-16T03:02:48;25.00;;;21.63;;
14740;SDS011;7462;53.530;9.414;2023-04-16T03:05:16;25.50;;;20.50;;
14740;SDS011;7462;53.530;9.414;2023-04-16T03:07:45;28.37;;;21.60;;
14740;SDS011;7462;53.530;9.414;2023-04-16T03:10:14;28.63;;;22.40;;
14740;SDS011;7462;53.530;9.414;2023-04-16T03:12:42;26.60;;;21.13;;
14740;SDS011;7462;53.530;9.414;2023-04-16T03:15:10;25.97;;;21.00;;
14740;SDS011;7462;53.530;9.414;2023-04-16T03:17:40;26.00;;;20.67;;
14740;SDS011;7462;53.530;9.414;2023-04-16T03:20:08;27.00;;;22.23;;
14740;SDS011;7462;53.530;9.414;2023-04-16T03:22:37;25.43;;;20.33;;
14740;SDS011;7462;53.530;9.414;2023-04-16T03:25:05;26.17;;;20.40;;
14740;SDS011;7462;53.530;9.414;2023-04-16T03:27:34;27.57;;;21.30;;
14740;SDS011;7462;53.530;9.414;2023-04-16T03:30:02;26.97;;;20.77;;
14740;SDS011;7462;53.530;9.414;2023-04-16T03:32:33;23.17;;;19.70;;
14740;SDS011;7462;53.530;9.414;2023-04-16T03:35:04;24.47;;;19.50;;
14740;SDS011;7462;53.530;9.414;2023-04-16T03:37:33;25.93;;;20.73;;
14740;SDS011;7462;53.530;9.414;2023-04-16T03:40:02;29.27;;;20.97;;
14740;SDS011;7462;53.530;9.414;2023-04-16T03:42:32;23.80;;;20.40;;
14740;SDS011;7462;53.530;9.414;2023-04-16T03:45:01;27.20;;;20.17;;
14740;SDS011;7462;53.530;9.414;2023-04-16T03:47:30;24.87;;;21.13;;
14740;SDS011;7462;53.530;9.414;2023-04-16T03:50:01;22.10;;;19.00;;
14740;SDS011;7462;53.530;9.414;2023-04-16T03:52:30;22.83;;;19.37;;
14740;SDS011;7462;53.530;9.414;2023-04-16T03:54:58;25.90;;;19.67;;
14740;SDS011;7462;53.530;9.414;2023-04-16T03:57:29;23.80;;;18.63;;
14740;SDS011;7462;53.530;9.414;2023-04-16T04:00:06;24.17;;;19.00;;
14740;SDS011;7462;53.530;9.414;2023-04-16T04:02:53;23.13;;;19.63;;
14740;SDS011;7462;53.530;9.414;2023-04-16T04:05:22;24.73;;;20.13;;
14740;SDS011;7462;53.530;9.414;2023-04-16T04:07:52;27.60;;;19.50;;
14740;SDS011;7462;53.530;9.414;2023-04-16T04:10:21;25.77;;;20.00;;
14740;SDS011;7462;53.530;9.414;2023-04-16T04:12:49;27.47;;;22.47;;
14740;SDS011;7462;53.530;9.414;2023-04-16T04:15:17;26.57;;;20.90;;
14740;SDS011;7462;53.530;9.414;2023-04-16T04:17:46;27.63;;;21.37;;
14740;SDS011;7462;53.530;9.414;2023-04-16T04:20:14;27.20;;;20.97;;
14740;SDS011;7462;53.530;9.414;2023-04-16T04:22:44;26.87;;;21.60;;
14740;SDS011;7462;53.530;9.414;2023-04-16T04:25:13;26.60;;;21.50;;
14740;SDS011;7462;53.530;9.414;2023-04-16T04:27:42;27.83;;;22.57;;
14740;SDS011;7462;53.530;9.414;2023-04-16T04:30:10;25.70;;;21.73;;
14740;SDS011;7462;53.530;9.414;2023-04-16T04:32:40;30.37;;;21.70;;
14740;SDS011;7462;53.530;9.414;2023-04-16T04:35:08;27.07;;;21.60;;
14740;SDS011;7462;53.530;9.414;2023-04-16T04:37:36;27.47;;;21.73;;
14740;SDS011;7462;53.530;9.414;2023-04-16T04:40:15;29.90;;;22.70;;
14740;SDS011;7462;53.530;9.414;2023-04-16T04:42:44;26.47;;;21.33;;
14740;SDS011;7462;53.530;9.414;2023-04-16T04:45:12;28.30;;;22.27;;
14740;SDS011;7462;53.530;9.414;2023-04-16T04:47:40;27.33;;;21.87;;
14740;SDS011;7462;53.530;9.414;2023-04-16T04:50:09;27.77;;;22.17;;
14740;SDS011;7462;53.530;9.414;2023-04-16T04:52:37;27.30;;;22.33;;
14740;SDS011;7462;53.530;9.414;2023-04-16T04:55:06;26.70;;;21.23;;
14740;SDS011;7462;53.530;9.414;2023-04-16T04:57:36;28.53;;;22.57;;
14740;SDS011;7462;53.530;9.414;2023-04-16T05:00:05;27.53;;;22.20;;
14740;SDS011;7462;53.530;9.414;2023-04-16T05:02:42;27.63;;;21.27;;
14740;SDS011;7462;53.530;9.414;2023-04-16T05:05:11;25.97;;;21.47;;
14740;SDS011;7462;53.530;9.414;2023-04-16T05:07:39;25.70;;;20.57;;
14740;SDS011;7462;53.530;9.414;2023-04-16T05:10:07;28.53;;;20.80;;
14740;SDS011;7462;53.530;9.414;2023-04-16T05:12:39;26.27;;;20.97;;
14740;SDS011;7462;53.530;9.414;2023-04-16T05:15:08;26.87;;;20.67;;
14740;SDS011;7462;53.530;9.414;2023-04-16T05:17:36;26.37;;;20.67;;
14740;SDS011;7462;53.530;9.414;2023-04-16T05:20:05;24.93;;;20.40;;
14740;SDS011;7462;53.530;9.414;2023-04-16T05:22:34;26.47;;;20.03;;
14740;SDS011;7462;53.530;9.414;2023-04-16T05:25:02;24.50;;;20.03;;
14740;SDS011;7462;53.530;9.414;2023-04-16T05:27:31;27.37;;;20.93;;
14740;SDS011;7462;53.530;9.414;2023-04-16T05:30:00;25.00;;;20.60;;
14740;SDS011;7462;53.530;9.414;2023-04-16T05:32:28;26.87;;;19.73;;
14740;SDS011;7462;53.530;9.414;2023-04-16T05:34:56;24.50;;;20.10;;
14740;SDS011;7462;53.530;9.414;2023-04-16T05:37:24;25.40;;;20.13;;
14740;SDS011;7462;53.530;9.414;2023-04-16T05:39:52;23.03;;;19.40;;
14740;SDS011;7462;53.530;9.414;2023-04-16T05:42:20;23.87;;;19.90;;
14740;SDS011;7462;53.530;9.414;2023-04-16T05:44:49;25.60;;;20.53;;
14740;SDS011;7462;53.530;9.414;2023-04-16T05:47:19;24.20;;;19.60;;
14740;SDS011;7462;53.530;9.414;2023-04-16T05:49:47;25.93;;;21.00;;
14740;SDS011;7462;53.530;9.414;2023-04-16T05:52:15;23.83;;;19.63;;
14740;SDS011;7462;53.530;9.414;2023-04-16T05:54:43;26.13;;;20.07;;
14740;SDS011;7462;53.530;9.414;2023-04-16T05:57:12;27.20;;;19.73;;
14740;SDS011;7462;53.530;9.414;2023-04-16T05:59:40;24.57;;;19.77;;
14740;SDS011;7462;53.530;9.414;2023-04-16T06:02:08;25.43;;;20.73;;
14740;SDS011;7462;53.530;9.414;2023-04-16T06:04:37;25.77;;;20.13;;
14740;SDS011;7462;53.530;9.414;2023-04-16T06:07:05;23.50;;;19.63;;
14740;SDS011;7462;53.530;9.414;2023-04-16T06:09:33;25.33;;;21.03;;
14740;SDS011;7462;53.530;9.414;2023-04-16T06:12:01;26.77;;;21.00;;
14740;SDS011;7462;53.530;9.414;2023-04-16T06:14:30;24.33;;;20.57;;
14740;SDS011;7462;53.530;9.414;2023-04-16T06:16:58;25.73;;;19.77;;
14740;SDS011;7462;53.530;9.414;2023-04-16T06:19:26;29.03;;;21.37;;
14740;SDS011;7462;53.530;9.414;2023-04-16T06:21:56;23.80;;;19.80;;
14740;SDS011;7462;53.530;9.414;2023-04-16T06:24:24;23.83;;;19.87;;
14740;SDS011;7462;53.530;9.414;2023-04-16T06:26:52;27.57;;;21.23;;
14740;SDS011;7462;53.530;9.414;2023-04-16T06:29:20;24.10;;;20.57;;
14740;SDS011;7462;53.530;9.414;2023-04-16T06:32:02;24.43;;;19.77;;
14740;SDS011;7462;53.530;9.414;2023-04-16T06:34:31;23.57;;;20.07;;
14740;SDS011;7462;53.530;9.414;2023-04-16T06:37:00;25.23;;;20.70;;
14740;SDS011;7462;53.530;9.414;2023-04-16T06:39:29;27.27;;;20.33;;
14740;SDS011;7462;53.530;9.414;2023-04-16T06:41:57;23.17;;;19.87;;
14740;SDS011;7462;53.530;9.414;2023-04-16T06:44:25;22.90;;;19.90;;
14740;SDS011;7462;53.530;9.414;2023-04-16T06:46:53;25.23;;;19.50;;
14740;SDS011;7462;53.530;9.414;2023-04-16T06:49:21;25.47;;;19.77;;
14740;SDS011;7462;53.530;9.414;2023-04-16T06:51:49;25.63;;;20.23;;
14740;SDS011;7462;53.530;9.414;2023-04-16T06:54:19;22.67;;;18.70;;
14740;SDS011;7462;53.530;9.414;2023-04-16T06:56:47;24.27;;;21.10;;
14740;SDS011;7462;53.530;9.414;2023-04-16T06:59:15;24.50;;;19.30;;
14740;SDS011;7462;53.530;9.414;2023-04-16T07:01:43;24.20;;;19.07;;
14740;SDS011;7462;53.530;9.414;2023-04-16T07:04:11;24.07;;;19.87;;
14740;SDS011;7462;53.530;9.414;2023-04-16T07:06:39;25.70;;;20.23;;
14740;SDS011;7462;53.530;9.414;2023-04-16T07:09:07;26.10;;;19.47;;
14740;SDS011;7462;53.530;9.414;2023-04-16T07:11:37;25.60;;;19.63;;
14740;SDS011;7462;53.530;9.414;2023-04-16T07:14:05;24.07;;;19.17;;
14740;SDS011;7462;53.530;9.414;2023-04-16T07:16:33;25.27;;;19.80;;
14740;SDS011;7462;53.530;9.414;2023-04-16T07:19:03;23.27;;;19.73;;
14740;SDS011;7462;53.530;9.414;2023-04-16T07:21:31;24.17;;;19.57;;
14740;SDS011;7462;53.530;9.414;2023-04-16T07:23:59;22.70;;;19.23;;
14740;SDS011;7462;53.530;9.414;2023-04-16T07:26:27;22.97;;;19.53;;
14740;SDS011;7462;53.530;9.414;2023-04-16T07:28:56;23.10;;;18.27;;
14740;SDS011;7462;53.530;9.414;2023-04-16T07:31:24;22.30;;;18.37;;
14740;SDS011;7462;53.530;9.414;2023-04-16T07:33:53;22.57;;;18.63;;
14740;SDS011;7462;53.530;9.414;2023-04-16T07:36:21;21.83;;;17.83;;
14740;SDS011;7462;53.530;9.414;2023-04-16T07:38:49;20.87;;;17.50;;
14740;SDS011;7462;53.530;9.414;2023-04-16T07:41:17;24.50;;;18.50;;
14740;SDS011;7462;53.530;9.414;2023-04-16T07:43:45;23.23;;;18.00;;
14740;SDS011;7462;53.530;9.414;2023-04-16T07:46:14;22.93;;;18.70;;
14740;SDS011;7462;53.530;9.414;2023-04-16T07:48:42;20.77;;;17.47;;
14740;SDS011;7462;53.530;9.414;2023-04-16T07:51:10;19.90;;;16.67;;
14740;SDS011;7462;53.530;9.414;2023-04-16T07:53:39;22.43;;;18.20;;
14740;SDS011;7462;53.530;9.414;2023-04-16T07:56:07;25.73;;;18.40;;
14740;SDS011;7462;53.530;9.414;2023-04-16T07:58:35;22.33;;;18.17;;
14740;SDS011;7462;53.530;9.414;2023-04-16T08:01:03;22.73;;;16.77;;
14740;SDS011;7462;53.530;9.414;2023-04-16T08:03:33;20.33;;;17.17;;
14740;SDS011;7462;53.530;9.414;2023-04-16T08:06:01;23.23;;;17.37;;
14740;SDS011;7462;53.530;9.414;2023-04-16T08:08:29;19.43;;;17.20;;
14740;SDS011;7462;53.530;9.414;2023-04-16T08:10:57;19.23;;;16.47;;
14740;SDS011;7462;53.530;9.414;2023-04-16T08:13:25;20.37;;;16.67;;
14740;SDS011;7462;53.530;9.414;2023-04-16T08:15:55;20.77;;;16.27;;
14740;SDS011;7462;53.530;9.414;2023-04-16T08:18:23;20.27;;;17.70;;
14740;SDS011;7462;53.530;9.414;2023-04-16T08:20:53;22.30;;;18.20;;
14740;SDS011;7462;53.530;9.414;2023-04-16T08:23:21;22.80;;;17.03;;
14740;SDS011;7462;53.530;9.414;2023-04-16T08:25:49;21.80;;;17.33;;
14740;SDS011;7462;53.530;9.414;2023-04-16T08:28:18;18.60;;;15.43;;
14740;SDS011;7462;53.530;9.414;2023-04-16T08:30:46;18.93;;;15.80;;
14740;SDS011;7462;53.530;9.414;2023-04-16T08:33:14;19.60;;;15.87;;
14740;SDS011;7462;53.530;9.414;2023-04-16T08:35:42;20.43;;;15.73;;
14740;SDS011;7462;53.530;9.414;2023-04-16T08:38:12;20.60;;;15.97;;
14740;SDS011;7462;53.530;9.414;2023-04-16T08:40:40;19.30;;;15.37;;
14740;SDS011;7462;53.530;9.414;2023-04-16T08:43:09;18.47;;;15.90;;
14740;SDS011;7462;53.530;9.414;2023-04-16T08:45:39;19.33;;;15.53;;
14740;SDS011;7462;53.530;9.414;2023-04-16T08:48:08;18.87;;;15.07;;
14740;SDS011;7462;53.530;9.414;2023-04-16T08:50:38;20.97;;;15.40;;
14740;SDS011;7462;53.530;9.414;2023-04-16T08:53:09;23.13;;;16.10;;
14740;SDS011;7462;53.530;9.414;2023-04-16T08:55:44;18.87;;;15.77;;
14740;SDS011;7462;53.530;9.414;2023-04-16T08:58:14;16.90;;;15.00;;
14740;SDS011;7462;53.530;9.414;2023-04-16T09:00:45;24.07;;;16.30;;
14740;SDS011;7462;53.530;9.414;2023-04-16T09:03:13;17.60;;;15.67;;
14740;SDS011;7462;53.530;9.414;2023-04-16T09:05:42;19.10;;;15.57;;
14740;SDS011;7462;53.530;9.414;2023-04-16T09:08:12;20.17;;;15.73;;
14740;SDS011;7462;53.530;9.414;2023-04-16T09:10:44;21.50;;;16.00;;
14740;SDS011;7462;53.530;9.414;2023-04-16T09:13:14;19.43;;;15.50;;
14740;SDS011;7462;53.530;9.414;2023-04-16T09:15:45;22.83;;;15.70;;
14740;SDS011;7462;53.530;9.414;2023-04-16T09:18:14;18.60;;;15.47;;
14740;SDS011;7462;53.530;9.414;2023-04-16T09:20:44;20.10;;;16.00;;
14740;SDS011;7462;53.530;9.414;2023-04-16T09:23:13;20.27;;;15.80;;
14740;SDS011;7462;53.530;9.414;2023-04-16T09:25:41;18.60;;;15.80;;
14740;SDS011;7462;53.530;9.414;2023-04-16T09:28:09;19.27;;;15.40;;
14740;SDS011;7462;53.530;9.414;2023-04-16T09:30:37;18.37;;;15.10;;
14740;SDS011;7462;53.530;9.414;2023-04-16T09:33:13;16.93;;;15.13;;
14740;SDS011;7462;53.530;9.414;2023-04-16T09:35:48;19.80;;;15.10;;
14740;SDS011;7462;53.530;9.414;2023-04-16T09:38:19;19.53;;;16.07;;
14740;SDS011;7462;53.530;9.414;2023-04-16T09:40:48;17.63;;;14.80;;
14740;SDS011;7462;53.530;9.414;2023-04-16T09:43:33;24.30;;;16.37;;
14740;SDS011;7462;53.530;9.414;2023-04-16T09:46:01;19.47;;;15.57;;
14740;SDS011;7462;53.530;9.414;2023-04-16T09:48:33;17.73;;;13.90;;
14740;SDS011;7462;53.530;9.414;2023-04-16T09:51:01;18.53;;;15.17;;
14740;SDS011;7462;53.530;9.414;2023-04-16T09:53:34;17.30;;;14.83;;
14740;SDS011;7462;53.530;9.414;2023-04-16T09:56:04;23.07;;;15.93;;
14740;SDS011;7462;53.530;9.414;2023-04-16T09:58:34;17.87;;;15.33;;
14740;SDS011;7462;53.530;9.414;2023-04-16T10:01:03;21.73;;;15.83;;
14740;SDS011;7462;53.530;9.414;2023-04-16T10:03:34;19.77;;;15.50;;
14740;SDS011;7462;53.530;9.414;2023-04-16T10:06:06;17.00;;;15.10;;
14740;SDS011;7462;53.530;9.414;2023-04-16T10:08:37;17.73;;;15.20;;
14740;SDS011;7462;53.530;9.414;2023-04-16T10:11:09;19.00;;;16.07;;
14740;SDS011;7462;53.530;9.414;2023-04-16T10:13:38;19.40;;;15.43;;
14740;SDS011;7462;53.530;9.414;2023-04-16T10:16:06;19.27;;;15.90;;
14740;SDS011;7462;53.530;9.414;2023-04-16T10:18:35;18.83;;;15.10;;
14740;SDS011;7462;53.530;9.414;2023-04-16T10:21:04;17.67;;;15.30;;
14740;SDS011;7462;53.530;9.414;2023-04-16T10:23:33;17.20;;;15.23;;
14740;SDS011;7462;53.530;9.414;2023-04-16T10:26:03;16.77;;;14.63;;
14740;SDS011;7462;53.530;9.414;2023-04-16T10:28:32;18.30;;;15.53;;
14740;SDS011;7462;53.530;9.414;2023-04-16T10:31:02;18.20;;;15.47;;
14740;SDS011;7462;53.530;9.414;2023-04-16T10:33:32;20.40;;;15.67;;
14740;SDS011;7462;53.530;9.414;2023-04-16T10:36:08;17.17;;;15.37;;
14740;SDS011;7462;53.530;9.414;2023-04-16T10:38:38;20.33;;;16.13;;
14740;SDS011;7462;53.530;9.414;2023-04-16T10:41:08;18.67;;;15.97;;
14740;SDS011;7462;53.530;9.414;2023-04-16T10:43:42;19.47;;;15.40;;
14740;SDS011;7462;53.530;9.414;2023-04-16T10:46:16;20.80;;;15.93;;
14740;SDS011;7462;53.530;9.414;2023-04-16T10:48:49;20.60;;;16.23;;
14740;SDS011;7462;53.530;9.414;2023-04-16T10:51:23;18.13;;;15.23;;
14740;SDS011;7462;53.530;9.414;2023-04-16T10:53:53;20.77;;;15.47;;
14740;SDS011;7462;53.530;9.414;2023-04-16T10:56:24;18.23;;;15.77;;
14740;SDS011;7462;53.530;9.414;2023-04-16T10:58:53;18.20;;;14.27;;
14740;SDS011;7462;53.530;9.414;2023-04-16T11:01:31;19.27;;;15.90;;
14740;SDS011;7462;53.530;9.414;2023-04-16T11:04:24;18.47;;;15.20;;
14740;SDS011;7462;53.530;9.414;2023-04-16T11:07:15;19.97;;;15.30;;
14740;SDS011;7462;53.530;9.414;2023-04-16T11:09:54;17.30;;;15.50;;
14740;SDS011;7462;53.530;9.414;2023-04-16T11:12:31;19.07;;;16.10;;
14740;SDS011;7462;53.530;9.414;2023-04-16T11:15:03;17.77;;;15.63;;
14740;SDS011;7462;53.530;9.414;2023-04-16T11:17:32;17.70;;;15.03;;
14740;SDS011;7462;53.530;9.414;2023-04-16T11:20:04;19.10;;;15.43;;
14740;SDS011;7462;53.530;9.414;2023-04-16T11:22:46;18.80;;;16.13;;
14740;SDS011;7462;53.530;9.414;2023-04-16T11:25:18;19.63;;;15.23;;
14740;SDS011;7462;53.530;9.414;2023-04-16T11:27:48;19.73;;;15.53;;
14740;SDS011;7462;53.530;9.414;2023-04-16T11:30:16;18.13;;;14.70;;
14740;SDS011;7462;53.530;9.414;2023-04-16T11:32:45;18.93;;;15.57;;
14740;SDS011;7462;53.530;9.414;2023-04-16T11:35:15;18.40;;;16.00;;
14740;SDS011;7462;53.530;9.414;2023-04-16T11:37:44;17.87;;;16.03;;
14740;SDS011;7462;53.530;9.414;2023-04-16T11:40:13;17.03;;;14.67;;
14740;SDS011;7462;53.530;9.414;2023-04-16T11:42:42;17.40;;;15.50;;
14740;SDS011;7462;53.530;9.414;2023-04-16T11:45:12;18.87;;;15.03;;
14740;SDS011;7462;53.530;9.414;2023-04-16T11:47:46;19.60;;;15.77;;
14740;SDS011;7462;53.530;9.414;2023-04-16T11:50:18;18.27;;;15.47;;
14740;SDS011;7462;53.530;9.414;2023-04-16T11:52:48;19.40;;;15.93;;
14740;SDS011;7462;53.530;9.414;2023-04-16T11:55:17;20.13;;;15.03;;
14740;SDS011;7462;53.530;9.414;2023-04-16T11:57:45;16.53;;;14.77;;
14740;SDS011;7462;53.530;9.414;2023-04-16T12:00:15;17.73;;;15.67;;
14740;SDS011;7462;53.530;9.414;2023-04-16T12:02:49;20.03;;;15.97;;
14740;SDS011;7462;53.530;9.414;2023-04-16T12:05:24;18.57;;;15.53;;
14740;SDS011;7462;53.530;9.414;2023-04-16T12:07:55;17.57;;;15.67;;
14740;SDS011;7462;53.530;9.414;2023-04-16T12:10:23;18.43;;;15.30;;
14740;SDS011;7462;53.530;9.414;2023-04-16T12:12:52;20.73;;;16.13;;
14740;SDS011;7462;53.530;9.414;2023-04-16T12:15:21;17.20;;;15.07;;
14740;SDS011;7462;53.530;9.414;2023-04-16T12:17:50;17.97;;;15.80;;
14740;SDS011;7462;53.530;9.414;2023-04-16T12:20:38;19.03;;;16.03;;
14740;SDS011;7462;53.530;9.414;2023-04-16T12:23:07;17.53;;;14.77;;
14740;SDS011;7462;53.530;9.414;2023-04-16T12:25:35;17.27;;;15.43;;
14740;SDS011;7462;53.530;9.414;2023-04-16T12:28:04;20.03;;;16.63;;
14740;SDS011;7462;53.530;9.414;2023-04-16T12:30:33;19.60;;;15.97;;
14740;SDS011;7462;53.530;9.414;2023-04-16T12:33:17;19.03;;;15.40;;
14740;SDS011;7462;53.530;9.414;2023-04-16T12:35:46;17.53;;;15.70;;
14740;SDS011;7462;53.530;9.414;2023-04-16T12:38:14;19.43;;;15.07;;
14740;SDS011;7462;53.530;9.414;2023-04-16T12:40:47;18.40;;;15.23;;
14740;SDS011;7462;53.530;9.414;2023-04-16T12:43:15;17.90;;;14.77;;
14740;SDS011;7462;53.530;9.414;2023-04-16T12:45:45;16.97;;;14.90;;
14740;SDS011;7462;53.530;9.414;2023-04-16T12:48:13;15.10;;;13.60;;
14740;SDS011;7462;53.530;9.414;2023-04-16T12:50:41;15.97;;;14.10;;
14740;SDS011;7462;53.530;9.414;2023-04-16T12:53:10;16.10;;;14.40;;
14740;SDS011;7462;53.530;9.414;2023-04-16T12:55:38;14.90;;;13.30;;
14740;SDS011;7462;53.530;9.414;2023-04-16T12:58:07;15.73;;;13.97;;
14740;SDS011;7462;53.530;9.414;2023-04-16T13:00:38;15.53;;;13.93;;
14740;SDS011;7462;53.530;9.414;2023-04-16T13:03:08;16.97;;;13.70;;
14740;SDS011;7462;53.530;9.414;2023-04-16T13:05:36;16.83;;;13.37;;
14740;SDS011;7462;53.530;9.414;2023-04-16T13:08:04;16.63;;;14.73;;
14740;SDS011;7462;53.530;9.414;2023-04-16T13:10:33;15.87;;;14.07;;
14740;SDS011;7462;53.530;9.414;2023-04-16T13:13:01;14.67;;;13.00;;
14740;SDS011;7462;53.530;9.414;2023-04-16T13:15:29;16.77;;;14.23;;
14740;SDS011;7462;53.530;9.414;2023-04-16T13:17:57;14.87;;;13.00;;
14740;SDS011;7462;53.530;9.414;2023-04-16T13:20:27;17.77;;;14.07;;
14740;SDS011;7462;53.530;9.414;2023-04-16T13:22:55;15.60;;;13.13;;
14740;SDS011;7462;53.530;9.414;2023-04-16T13:25:23;15.43;;;13.87;;
14740;SDS011;7462;53.530;9.414;2023-04-16T13:27:51;15.10;;;13.50;;
14740;SDS011;7462;53.530;9.414;2023-04-16T13:30:19;16.90;;;15.00;;
14740;SDS011;7462;53.530;9.414;2023-04-16T13:32:47;17.60;;;15.83;;
14740;SDS011;7462;53.530;9.414;2023-04-16T13:35:16;16.13;;;14.47;;
14740;SDS011;7462;53.530;9.414;2023-04-16T13:37:45;17.17;;;15.13;;
14740;SDS011;7462;53.530;9.414;2023-04-16T13:40:13;16.53;;;14.23;;
14740;SDS011;7462;53.530;9.414;2023-04-16T13:42:41;16.50;;;13.83;;
14740;SDS011;7462;53.530;9.414;2023-04-16T13:45:09;16.63;;;14.53;;
14740;SDS011;7462;53.530;9.414;2023-04-16T13:47:38;16.73;;;14.17;;
14740;SDS011;7462;53.530;9.414;2023-04-16T13:50:08;16.30;;;14.60;;
14740;SDS011;7462;53.530;9.414;2023-04-16T13:52:36;16.80;;;14.23;;
14740;SDS011;7462;53.530;9.414;2023-04-16T13:55:06;16.90;;;15.10;;
14740;SDS011;7462;53.530;9.414;2023-04-16T13:57:35;16.60;;;14.63;;
14740;SDS011;7462;53.530;9.414;2023-04-16T14:00:04;16.50;;;13.70;;
14740;SDS011;7462;53.530;9.414;2023-04-16T14:02:38;16.17;;;14.07;;
14740;SDS011;7462;53.530;9.414;2023-04-16T14:05:08;16.33;;;13.40;;
14740;SDS011;7462;53.530;9.414;2023-04-16T14:07:36;15.20;;;13.60;;
14740;SDS011;7462;53.530;9.414;2023-04-16T14:10:06;16.40;;;14.13;;
14740;SDS011;7462;53.530;9.414;2023-04-16T14:12:35;15.57;;;13.50;;
14740;SDS011;7462;53.530;9.414;2023-04-16T14:15:04;16.33;;;13.83;;
14740;SDS011;7462;53.530;9.414;2023-04-16T14:17:34;16.93;;;14.80;;
14740;SDS011;7462;53.530;9.414;2023-04-16T14:20:03;16.17;;;14.20;;
14740;SDS011;7462;53.530;9.414;2023-04-16T14:22:32;17.13;;;14.70;;
14740;SDS011;7462;53.530;9.414;2023-04-16T14:25:00;18.37;;;15.10;;
14740;SDS011;7462;53.530;9.414;2023-04-16T14:27:30;17.70;;;14.57;;
14740;SDS011;7462;53.530;9.414;2023-04-16T14:29:59;16.73;;;14.17;;
14740;SDS011;7462;53.530;9.414;2023-04-16T14:32:27;16.20;;;14.50;;
14740;SDS011;7462;53.530;9.414;2023-04-16T14:34:55;15.67;;;14.00;;
14740;SDS011;7462;53.530;9.414;2023-04-16T14:37:23;18.37;;;15.63;;
14740;SDS011;7462;53.530;9.414;2023-04-16T14:39:52;17.63;;;14.17;;
14740;SDS011;7462;53.530;9.414;2023-04-16T14:42:20;17.57;;;14.33;;
14740;SDS011;7462;53.530;9.414;2023-04-16T14:44:50;15.43;;;13.87;;
14740;SDS011;7462;53.530;9.414;2023-04-16T14:47:18;16.07;;;14.20;;